aviador You're here:

CYPX Decoded Metar

PUVIRGNITUQ in QC, CANADA
Report Time2017-07-22 22:00:00
UTC Time2017-07-22 22:44:59
Flight Rules vfr VFR
Wind300° at 19 kt
W.Decomp.*RWY 01: 12.5 kt HW 14.3 kt LCW
W.Rank300° ranks 16
Current wind is above 300° avg. (11.9)
Visibility9999 m
Phenomena:N/A
Clouds:Few 250 Hf
Expected CloudBase > 2,400 ft AGL from Temp-Dew spread
CeilingNone
Temp13°C (ISA -2)
Dew Point07°C (67% RH)
AAT5.5°C
QNH1009 hPa
Density Alt128 ft
Elevation75 ft
Report Wrong Elevation
Raw Report
CYPX 222200Z AUTO 30019KT 9SM FEW250 13/07 A2981 RMK SLP096=

Extra information for CYPX:More info

Metar Taf Metar & Taf Last 4 Metars F.Rules Stats Wind Profile Meteogram Temp Stats Airport Information Weather charts Add Link Nearby VenuesMetar ALERT Operation Metar Decoded Social comments